Time;durP1;ratioP1;P1;durP2;ratioP2;P2;SDS_P1;SDS_P2;PMS_P1;PMS_P2;Temp;Humidity;BMP_temperature;BMP_pressure;BME280_temperature;BME280_humidity;BME280_pressure;Samples;Min_cycle;Max_cycle;Signal;HPM_P1;HPM_P2
2021/12/23 00:01:47;;;;;;;25.53;14.23;;;-0.30;99.90;;;;;;5117095;27;20173;-70
2021/12/23 00:04:13;;;;;;;24.53;13.27;;;-0.30;99.90;;;;;;5135187;27;20180;-70
2021/12/23 00:06:41;;;;;;;26.93;14.93;;;-0.30;99.90;;;;;;5116912;27;20223;-71
2021/12/23 00:09:06;;;;;;;27.67;15.77;;;-0.40;99.90;;;;;;5116275;27;20278;-70
2021/12/23 00:11:32;;;;;;;26.67;14.83;;;-0.50;99.90;;;;;;5116673;27;20204;-70
2021/12/23 00:14:04;;;;;;;31.23;15.50;;;-0.50;99.90;;;;;;5135255;27;20635;-70
2021/12/23 00:16:46;;;;;;;27.23;14.53;;;-0.50;99.90;;;;;;5136377;27;20197;-69
2021/12/23 00:24:33;;;;;;;28.03;15.57;;;-0.60;99.90;;;;;;5135250;27;20233;-70
2021/12/23 00:26:58;;;;;;;30.37;16.33;;;-0.70;99.90;;;;;;5116535;27;20173;-71
2021/12/23 00:29:24;;;;;;;25.93;15.20;;;-0.70;99.90;;;;;;5134480;27;20200;-70
2021/12/23 00:31:50;;;;;;;29.00;15.70;;;-0.70;99.90;;;;;;5134923;27;20188;-70
2021/12/23 00:34:16;;;;;;;26.10;14.87;;;-0.70;99.90;;;;;;5116073;27;20185;-67
2021/12/23 00:36:44;;;;;;;27.47;15.77;;;-0.70;99.90;;;;;;5116207;27;20197;-69
2021/12/23 00:39:11;;;;;;;29.27;15.33;;;-0.70;99.90;;;;;;5134082;27;20181;-70
2021/12/23 00:41:37;;;;;;;26.13;14.87;;;-0.80;99.90;;;;;;5134102;27;20553;-70
2021/12/23 00:44:03;;;;;;;29.47;15.77;;;-0.80;99.90;;;;;;5115922;27;20310;-70
2021/12/23 00:46:29;;;;;;;28.63;16.10;;;-0.80;99.90;;;;;;5115929;27;20180;-70
2021/12/23 00:48:54;;;;;;;25.70;13.67;;;-0.80;99.90;;;;;;5133925;27;20272;-69
2021/12/23 00:51:20;;;;;;;26.40;14.97;;;-0.80;99.90;;;;;;5116001;27;20184;-70
2021/12/23 00:53:49;;;;;;;27.83;14.37;;;-0.80;99.90;;;;;;5115820;27;20169;-70
2021/12/23 00:56:14;;;;;;;28.70;14.83;;;-0.80;99.90;;;;;;5115515;27;20174;-70
2021/12/23 00:58:40;;;;;;;27.50;14.50;;;-0.80;99.90;;;;;;5115266;27;20207;-70
2021/12/23 01:01:06;;;;;;;25.53;14.00;;;-0.70;99.90;;;;;;5115678;27;20174;-70
2021/12/23 01:03:32;;;;;;;26.20;14.50;;;-0.70;99.90;;;;;;5115421;27;20187;-71
2021/12/23 01:05:58;;;;;;;24.53;14.10;;;-0.80;99.90;;;;;;5115636;27;20580;-69
2021/12/23 01:08:24;;;;;;;30.20;15.30;;;-0.80;99.90;;;;;;5133377;27;20641;-70
2021/12/23 01:10:55;;;;;;;28.03;14.83;;;-0.80;99.90;;;;;;5115223;27;20182;-70
2021/12/23 01:13:25;;;;;;;25.47;15.00;;;-0.80;99.90;;;;;;5115312;27;20653;-70
2021/12/23 01:16:03;;;;;;;29.47;15.47;;;-0.80;99.90;;;;;;5115534;27;20179;-70
2021/12/23 01:18:43;;;;;;;24.20;13.13;;;-0.80;99.90;;;;;;5114568;27;20212;-70
2021/12/23 01:21:16;;;;;;;26.03;14.80;;;-0.80;99.90;;;;;;5115223;27;20266;-70
2021/12/23 01:23:51;;;;;;;30.37;15.03;;;-0.80;99.90;;;;;;5115101;27;20174;-69
2021/12/23 01:26:20;;;;;;;27.70;14.93;;;-0.80;99.90;;;;;;5115102;27;20664;-70
2021/12/23 01:28:49;;;;;;;24.60;15.20;;;-0.80;99.90;;;;;;5114613;27;20193;-70
2021/12/23 01:31:14;;;;;;;27.90;14.43;;;-0.80;99.90;;;;;;5115209;27;20180;-70
2021/12/23 01:33:40;;;;;;;27.33;14.50;;;-0.90;99.90;;;;;;5114762;27;20177;-70
2021/12/23 01:36:06;;;;;;;22.53;13.97;;;-0.90;99.90;;;;;;5133313;27;20165;-70
2021/12/23 01:38:31;;;;;;;27.47;15.73;;;-0.90;99.90;;;;;;5132701;27;20210;-70
2021/12/23 01:40:57;;;;;;;28.17;14.73;;;-0.90;99.90;;;;;;5133636;27;20226;-70
2021/12/23 01:43:22;;;;;;;25.27;14.07;;;-1.00;99.90;;;;;;5114803;27;20181;-70
2021/12/23 01:45:49;;;;;;;25.50;14.97;;;-0.90;99.90;;;;;;5114854;27;20204;-70
2021/12/23 01:48:17;;;;;;;26.10;14.37;;;-1.00;99.90;;;;;;5114112;27;20200;-70
2021/12/23 01:50:43;;;;;;;26.80;14.40;;;-1.00;99.90;;;;;;5114726;27;20184;-70
2021/12/23 01:53:09;;;;;;;29.13;14.93;;;-0.90;99.90;;;;;;5114063;27;20542;-70
2021/12/23 01:55:35;;;;;;;24.77;13.40;;;-0.90;99.90;;;;;;5132835;27;20632;-71
2021/12/23 01:58:02;;;;;;;25.70;15.40;;;-0.90;99.90;;;;;;5131004;27;20704;-69
2021/12/23 02:00:30;;;;;;;26.73;15.00;;;-0.90;99.90;;;;;;5130300;27;20651;-69
2021/12/23 02:02:57;;;;;;;32.60;16.50;;;-0.90;99.90;;;;;;5111654;27;20173;-70
2021/12/23 02:05:24;;;;;;;26.50;14.00;;;-1.00;99.90;;;;;;5113414;27;20168;-70
2021/12/23 02:07:50;;;;;;;27.43;14.73;;;-1.00;99.90;;;;;;5132370;27;20194;-70
2021/12/23 02:10:15;;;;;;;23.53;13.43;;;-1.00;99.90;;;;;;5113414;27;20185;-71
2021/12/23 02:12:46;;;;;;;28.50;15.53;;;-1.00;99.90;;;;;;5114272;27;20646;-69
2021/12/23 02:15:13;;;;;;;30.07;15.77;;;-1.00;99.90;;;;;;5114149;27;20206;-70
2021/12/23 02:17:39;;;;;;;24.43;14.17;;;-1.00;99.90;;;;;;5113868;27;20554;-69
2021/12/23 02:20:07;;;;;;;26.37;15.33;;;-1.00;99.90;;;;;;5113683;27;20213;-70
2021/12/23 02:22:33;;;;;;;25.60;14.43;;;-1.10;99.90;;;;;;5113992;27;20183;-70
2021/12/23 02:24:59;;;;;;;26.77;14.23;;;-1.00;99.90;;;;;;5113970;27;20177;-70
2021/12/23 02:27:24;;;;;;;24.23;13.73;;;-1.10;99.90;;;;;;5113934;27;20611;-70
2021/12/23 02:29:50;;;;;;;25.27;14.33;;;-1.10;99.90;;;;;;5113647;27;20228;-69
2021/12/23 02:32:15;;;;;;;25.37;14.17;;;-1.00;99.90;;;;;;5113885;27;20601;-70
2021/12/23 02:34:41;;;;;;;25.77;14.30;;;-1.10;99.90;;;;;;5132272;27;20672;-70
2021/12/23 02:37:07;;;;;;;26.27;15.67;;;-1.00;99.90;;;;;;5113952;27;20201;-70
2021/12/23 02:39:33;;;;;;;28.00;15.50;;;-1.00;99.90;;;;;;5113285;27;20197;-70
2021/12/23 02:41:59;;;;;;;28.50;14.93;;;-1.00;99.90;;;;;;5113867;28;20173;-68
2021/12/23 02:44:24;;;;;;;30.97;14.60;;;-1.10;99.90;;;;;;5132091;27;20605;-69
2021/12/23 02:46:50;;;;;;;24.67;14.33;;;-1.00;99.90;;;;;;5113726;27;20176;-70
2021/12/23 02:49:15;;;;;;;23.13;14.13;;;-1.10;99.90;;;;;;5113231;28;20235;-70
2021/12/23 02:51:42;;;;;;;28.07;15.07;;;-1.10;99.90;;;;;;5132277;28;20649;-70
2021/12/23 02:54:07;;;;;;;28.83;14.73;;;-1.10;99.90;;;;;;5113615;28;20257;-69
2021/12/23 02:56:33;;;;;;;26.77;15.00;;;-1.10;99.90;;;;;;5113534;28;20238;-70
2021/12/23 02:59:00;;;;;;;25.50;14.67;;;-1.20;99.90;;;;;;5113050;28;20279;-70
2021/12/23 03:01:26;;;;;;;29.10;15.30;;;-1.10;99.90;;;;;;5131973;28;20626;-70
2021/12/23 03:03:52;;;;;;;27.60;15.47;;;-1.10;99.90;;;;;;5113863;28;20541;-70
2021/12/23 03:06:19;;;;;;;26.90;14.50;;;-1.10;99.90;;;;;;5117906;27;20168;-70
2021/12/23 03:08:48;;;;;;;29.23;15.60;;;-1.20;99.90;;;;;;5135822;27;20189;-70
2021/12/23 03:11:17;;;;;;;26.53;15.10;;;-1.20;99.90;;;;;;5117825;27;20536;-70
2021/12/23 03:13:43;;;;;;;25.00;15.10;;;-1.30;99.90;;;;;;5136024;27;20218;-70
2021/12/23 03:16:11;;;;;;;27.80;15.57;;;-1.20;99.90;;;;;;5117400;27;20173;-70
2021/12/23 03:18:36;;;;;;;30.07;16.23;;;-1.30;99.90;;;;;;5116854;27;20210;-70
2021/12/23 03:21:03;;;;;;;28.20;15.53;;;-1.30;99.90;;;;;;5133802;27;20203;-70
2021/12/23 03:23:28;;;;;;;29.30;15.13;;;-1.30;99.90;;;;;;5117321;27;20259;-71
2021/12/23 03:25:54;;;;;;;29.23;16.10;;;-1.20;99.90;;;;;;5135885;27;20258;-70
2021/12/23 03:28:19;;;;;;;29.13;15.37;;;-1.30;99.90;;;;;;5135417;27;20218;-70
2021/12/23 03:30:46;;;;;;;27.30;15.73;;;-1.20;99.90;;;;;;5117221;27;20193;-71
2021/12/23 03:33:12;;;;;;;26.50;15.13;;;-1.20;99.90;;;;;;5117221;27;20168;-70
2021/12/23 03:35:38;;;;;;;26.10;15.13;;;-1.10;99.90;;;;;;5135728;27;20524;-70
2021/12/23 03:38:04;;;;;;;27.67;15.13;;;-1.20;99.90;;;;;;5135429;27;20204;-70
2021/12/23 03:40:30;;;;;;;26.07;16.03;;;-1.20;99.90;;;;;;5135459;27;20176;-70
2021/12/23 03:42:56;;;;;;;33.20;16.67;;;-1.20;99.90;;;;;;5117219;27;20173;-70
2021/12/23 03:45:22;;;;;;;28.63;16.20;;;-1.20;99.90;;;;;;5116928;27;20600;-70
2021/12/23 03:47:49;;;;;;;27.67;15.53;;;-1.20;99.90;;;;;;5135378;27;20530;-70
2021/12/23 03:50:17;;;;;;;30.43;15.73;;;-1.20;99.90;;;;;;5117010;27;20231;-70
2021/12/23 03:52:44;;;;;;;28.20;15.37;;;-1.10;99.90;;;;;;5117014;27;20178;-70
2021/12/23 03:55:10;;;;;;;29.67;16.77;;;-1.20;99.90;;;;;;5116722;27;20553;-70
2021/12/23 03:57:36;;;;;;;28.60;16.63;;;-1.20;99.90;;;;;;5116902;27;20193;-70
2021/12/23 04:00:04;;;;;;;31.27;16.70;;;-1.20;99.90;;;;;;5116373;27;20188;-70
2021/12/23 04:02:29;;;;;;;28.07;15.93;;;-1.10;99.90;;;;;;5116993;27;20173;-70
2021/12/23 04:04:55;;;;;;;31.20;15.87;;;-1.20;99.90;;;;;;5116606;27;20180;-72
2021/12/23 04:07:20;;;;;;;29.50;15.97;;;-1.20;99.90;;;;;;5116696;27;20258;-69
2021/12/23 04:09:46;;;;;;;29.53;16.50;;;-1.20;99.90;;;;;;5134583;27;20257;-70
2021/12/23 04:12:11;;;;;;;28.90;16.60;;;-1.20;99.90;;;;;;5116663;27;20185;-70
2021/12/23 04:14:37;;;;;;;28.87;16.60;;;-1.30;99.90;;;;;;5116232;27;20169;-70
2021/12/23 04:17:03;;;;;;;31.63;16.00;;;-1.30;99.90;;;;;;5134666;27;20192;-70
2021/12/23 04:19:31;;;;;;;31.30;17.50;;;-1.30;99.90;;;;;;5113509;22;20719;-69
2021/12/23 04:21:57;;;;;;;26.67;15.33;;;-1.30;99.90;;;;;;5114558;28;20170;-70
2021/12/23 04:24:24;;;;;;;34.63;18.20;;;-1.20;99.90;;;;;;5095768;28;20180;-70
2021/12/23 04:26:50;;;;;;;34.83;17.13;;;-1.20;99.90;;;;;;5095981;28;20180;-70
2021/12/23 04:29:16;;;;;;;36.23;17.33;;;-1.20;99.90;;;;;;5095655;28;20198;-70
2021/12/23 04:31:41;;;;;;;30.40;17.07;;;-1.20;99.90;;;;;;5114600;28;20512;-70
2021/12/23 04:34:07;;;;;;;28.00;16.53;;;-1.20;99.90;;;;;;5112846;28;20209;-70
2021/12/23 04:36:33;;;;;;;34.37;17.83;;;-1.10;99.90;;;;;;5112808;28;20260;-70
2021/12/23 04:38:59;;;;;;;28.40;16.53;;;-1.10;99.90;;;;;;5112139;28;20197;-70
2021/12/23 04:41:25;;;;;;;30.47;16.47;;;-1.20;99.90;;;;;;5114467;28;20166;-70
2021/12/23 04:43:50;;;;;;;30.57;17.17;;;-1.20;99.90;;;;;;5112486;28;20545;-70
2021/12/23 04:46:16;;;;;;;28.67;16.00;;;-1.20;99.90;;;;;;5112707;28;20170;-70
2021/12/23 04:48:44;;;;;;;32.87;17.43;;;-1.10;99.90;;;;;;5095204;28;20193;-70
2021/12/23 04:51:14;;;;;;;32.33;17.77;;;-1.10;99.90;;;;;;5095692;28;20313;-72
2021/12/23 04:53:40;;;;;;;32.30;16.17;;;-1.10;99.90;;;;;;5112257;28;20181;-70
2021/12/23 04:56:05;;;;;;;33.70;17.80;;;-1.20;99.90;;;;;;5095419;28;20178;-71
2021/12/23 04:58:31;;;;;;;33.57;17.87;;;-1.10;99.90;;;;;;5113269;28;20194;-71
2021/12/23 05:00:56;;;;;;;32.83;17.97;;;-1.20;99.90;;;;;;5113769;28;20194;-70
2021/12/23 05:03:24;;;;;;;35.00;18.20;;;-1.20;99.90;;;;;;5095383;28;20166;-70
2021/12/23 05:05:50;;;;;;;34.67;18.17;;;-1.10;99.90;;;;;;5113401;28;20166;-72
2021/12/23 05:08:17;;;;;;;33.93;18.17;;;-1.20;99.90;;;;;;5111826;28;20174;-70
2021/12/23 05:10:44;;;;;;;38.53;18.93;;;-1.10;99.90;;;;;;5113360;28;20162;-69
2021/12/23 05:13:10;;;;;;;32.93;18.13;;;-1.10;99.90;;;;;;5113751;28;20526;-70
2021/12/23 05:15:35;;;;;;;34.60;18.23;;;-1.10;99.90;;;;;;5111825;28;20196;-70
2021/12/23 05:18:01;;;;;;;32.47;18.20;;;-1.10;99.90;;;;;;5112875;28;20297;-69
2021/12/23 05:20:27;;;;;;;31.17;17.03;;;-1.10;99.90;;;;;;5112957;28;20272;-70
2021/12/23 05:22:53;;;;;;;36.67;19.37;;;-1.10;99.90;;;;;;5112008;28;20174;-70
2021/12/23 05:25:19;;;;;;;32.10;17.07;;;-1.10;99.90;;;;;;5111625;28;20174;-71
2021/12/23 05:27:45;;;;;;;33.00;17.30;;;-1.00;99.90;;;;;;5110791;28;20174;-70
2021/12/23 05:30:13;;;;;;;30.50;16.97;;;-1.00;99.90;;;;;;5112877;28;20654;-70
2021/12/23 05:32:41;;;;;;;33.80;18.67;;;-0.90;99.90;;;;;;5111795;28;20179;-70
2021/12/23 05:35:07;;;;;;;33.27;18.40;;;-0.90;99.90;;;;;;5111641;28;20176;-70
2021/12/23 05:37:33;;;;;;;31.20;17.53;;;-1.00;99.90;;;;;;5111389;28;20244;-70
2021/12/23 05:39:58;;;;;;;36.17;18.80;;;-1.00;99.90;;;;;;5110960;28;20191;-70
2021/12/23 05:42:24;;;;;;;33.60;18.30;;;-1.00;99.90;;;;;;5112998;28;20265;-71
2021/12/23 05:44:49;;;;;;;36.33;18.60;;;-1.00;99.90;;;;;;5112708;28;20170;-70
2021/12/23 05:47:15;;;;;;;34.53;17.97;;;-1.00;99.90;;;;;;5113527;28;20170;-70
2021/12/23 05:49:40;;;;;;;35.00;19.10;;;-1.00;99.90;;;;;;5113448;28;20201;-71
2021/12/23 05:52:06;;;;;;;33.83;17.83;;;-1.00;99.90;;;;;;5113451;28;20670;-70
2021/12/23 05:54:32;;;;;;;36.07;18.90;;;-0.90;99.90;;;;;;5113999;28;20173;-70
2021/12/23 05:57:02;;;;;;;33.23;18.37;;;-1.00;99.90;;;;;;5111985;28;20223;-68
2021/12/23 05:59:32;;;;;;;33.83;19.60;;;-1.00;99.90;;;;;;5110625;28;20190;-69
2021/12/23 06:02:02;;;;;;;35.20;18.77;;;-1.00;99.90;;;;;;5112549;28;20180;-69
2021/12/23 06:04:27;;;;;;;36.97;18.63;;;-1.00;99.90;;;;;;5111094;28;20176;-71
2021/12/23 06:06:53;;;;;;;38.27;18.90;;;-1.00;99.90;;;;;;5111770;28;20699;-71
2021/12/23 06:09:19;;;;;;;36.50;18.60;;;-1.00;99.90;;;;;;5112410;28;20190;-71
2021/12/23 06:11:45;;;;;;;39.83;18.77;;;-0.90;99.90;;;;;;5112809;28;20178;-69
2021/12/23 06:14:10;;;;;;;32.40;18.33;;;-0.90;99.90;;;;;;5110948;28;20178;-70
2021/12/23 06:16:36;;;;;;;34.93;19.23;;;-1.00;99.90;;;;;;5111931;28;20974;-71
2021/12/23 06:19:02;;;;;;;32.50;18.43;;;-0.90;99.90;;;;;;5110921;28;20213;-70
2021/12/23 06:21:30;;;;;;;35.73;19.70;;;-0.90;99.90;;;;;;5111947;28;20551;-71
2021/12/23 06:23:56;;;;;;;36.33;19.30;;;-0.90;99.90;;;;;;5111091;28;20176;-70
2021/12/23 06:26:22;;;;;;;32.70;18.20;;;-0.90;99.90;;;;;;5110439;28;20278;-71
2021/12/23 06:28:48;;;;;;;34.63;19.13;;;-1.00;99.90;;;;;;5110475;28;20271;-70
2021/12/23 06:31:14;;;;;;;32.73;17.07;;;-0.90;99.90;;;;;;5112312;28;20637;-70
2021/12/23 06:33:40;;;;;;;31.60;17.50;;;-0.90;99.90;;;;;;5110674;28;20180;-70
2021/12/23 06:36:06;;;;;;;34.87;17.73;;;-0.90;99.90;;;;;;5110876;28;20174;-70
2021/12/23 06:38:32;;;;;;;31.50;18.23;;;-0.80;99.90;;;;;;5112686;28;20254;-71
2021/12/23 06:40:58;;;;;;;34.13;18.60;;;-0.90;99.90;;;;;;5111894;28;20599;-71
2021/12/23 06:43:24;;;;;;;31.07;17.20;;;-0.90;99.90;;;;;;5112674;28;20165;-71
2021/12/23 06:45:50;;;;;;;31.33;18.23;;;-0.80;99.90;;;;;;5111181;28;20170;-70
2021/12/23 06:48:15;;;;;;;38.23;19.17;;;-0.90;99.90;;;;;;5110599;28;20174;-70
2021/12/23 06:50:42;;;;;;;30.37;16.53;;;-0.80;99.90;;;;;;5111707;28;20165;-70
2021/12/23 06:53:08;;;;;;;36.07;18.57;;;-0.80;99.90;;;;;;5110789;28;20185;-72
2021/12/23 06:55:34;;;;;;;31.80;17.40;;;-0.80;99.90;;;;;;5110765;28;20171;-69
2021/12/23 06:58:00;;;;;;;34.33;17.93;;;-0.70;99.90;;;;;;5110324;28;20201;-70
2021/12/23 07:00:29;;;;;;;31.83;18.10;;;-0.70;99.90;;;;;;5110539;28;20196;-70
2021/12/23 07:02:55;;;;;;;32.83;17.83;;;-0.70;99.90;;;;;;5110702;28;20162;-70
2021/12/23 07:05:22;;;;;;;32.13;17.37;;;-0.70;99.90;;;;;;5110724;28;20299;-70
2021/12/23 07:07:55;;;;;;;33.93;17.33;;;-0.70;99.90;;;;;;5110225;28;20189;-71
2021/12/23 07:10:26;;;;;;;36.93;18.27;;;-0.70;99.90;;;;;;5110239;28;20681;-70
2021/12/23 07:12:52;;;;;;;34.97;18.90;;;-0.70;99.90;;;;;;5110304;28;20174;-70
2021/12/23 07:15:18;;;;;;;33.23;18.80;;;-0.70;99.90;;;;;;5111826;28;20569;-71
2021/12/23 07:17:43;;;;;;;37.60;19.23;;;-0.70;99.90;;;;;;5111273;28;20199;-73
2021/12/23 07:20:10;;;;;;;30.90;17.77;;;-0.60;99.90;;;;;;5111413;28;20199;-70
2021/12/23 07:22:35;;;;;;;33.17;18.63;;;-0.50;99.90;;;;;;5111791;28;20490;-71
2021/12/23 07:25:01;;;;;;;32.70;18.43;;;-0.60;99.90;;;;;;5109938;28;20162;-71
2021/12/23 07:27:27;;;;;;;32.20;18.10;;;-0.50;99.90;;;;;;5110520;28;20167;-70
2021/12/23 07:29:52;;;;;;;33.37;17.60;;;-0.60;99.90;;;;;;5109851;28;20309;-71
2021/12/23 07:32:18;;;;;;;34.50;17.27;;;-0.60;99.90;;;;;;5110222;28;20674;-70
2021/12/23 07:34:43;;;;;;;32.90;18.00;;;-0.60;99.90;;;;;;5110035;28;20530;-70
2021/12/23 07:37:10;;;;;;;32.77;17.43;;;-0.60;99.90;;;;;;5109728;28;20441;-70
2021/12/23 07:39:36;;;;;;;30.47;17.20;;;-0.60;99.90;;;;;;5109351;28;20203;-71
2021/12/23 07:42:02;;;;;;;30.17;16.47;;;-0.60;99.90;;;;;;5109892;28;20635;-70
2021/12/23 07:44:28;;;;;;;30.30;17.03;;;-0.50;99.90;;;;;;5111241;28;20162;-69
2021/12/23 07:46:54;;;;;;;29.57;16.70;;;-0.50;99.90;;;;;;5111084;28;20215;-69
2021/12/23 07:49:19;;;;;;;32.07;16.93;;;-0.50;99.90;;;;;;5109340;28;20208;-72
2021/12/23 07:51:45;;;;;;;31.33;17.13;;;-0.50;99.90;;;;;;5096048;28;20566;-69
2021/12/23 07:54:11;;;;;;;34.70;17.47;;;-0.40;99.90;;;;;;5114747;28;20673;-69
2021/12/23 07:56:37;;;;;;;32.17;16.83;;;-0.30;99.90;;;;;;5114741;28;20171;-69
2021/12/23 07:59:03;;;;;;;32.97;16.77;;;-0.30;99.90;;;;;;5095510;28;20544;-70
2021/12/23 08:01:28;;;;;;;33.60;16.20;;;-0.40;99.90;;;;;;5113580;28;20169;-70
2021/12/23 08:03:54;;;;;;;33.97;17.50;;;-0.30;99.90;;;;;;5113189;28;20179;-70
2021/12/23 08:06:20;;;;;;;33.07;17.03;;;-0.30;99.90;;;;;;5114992;28;20184;-70
2021/12/23 08:08:45;;;;;;;27.67;16.23;;;-0.30;99.90;;;;;;5112812;28;20287;-70
2021/12/23 08:11:11;;;;;;;29.80;17.10;;;-0.30;99.90;;;;;;5113084;28;20179;-69
2021/12/23 08:13:37;;;;;;;30.50;16.13;;;-0.30;99.90;;;;;;5114759;28;20523;-69
2021/12/23 08:16:03;;;;;;;29.80;16.57;;;-0.20;99.90;;;;;;5113258;28;20175;-69
2021/12/23 08:18:30;;;;;;;29.70;17.13;;;-0.20;99.90;;;;;;5112508;28;20248;-70
2021/12/23 08:20:57;;;;;;;33.47;18.23;;;-0.20;99.90;;;;;;5113127;28;20197;-69
2021/12/23 08:23:22;;;;;;;30.30;16.07;;;-0.20;99.90;;;;;;5112998;28;20171;-70
2021/12/23 08:25:49;;;;;;;30.10;15.80;;;-0.10;99.90;;;;;;5114014;28;20164;-70
2021/12/23 08:28:14;;;;;;;28.37;15.10;;;-0.10;99.90;;;;;;5112486;28;20258;-70
2021/12/23 08:30:41;;;;;;;31.63;16.50;;;-0.10;99.90;;;;;;5095837;28;20593;-71
2021/12/23 08:33:07;;;;;;;31.67;15.60;;;-0.20;99.90;;;;;;5113719;28;20207;-70
2021/12/23 08:35:34;;;;;;;29.97;15.87;;;-0.20;99.90;;;;;;5112722;28;20276;-71
2021/12/23 08:38:00;;;;;;;29.83;15.47;;;-0.10;99.90;;;;;;5112485;28;20200;-70
2021/12/23 08:40:27;;;;;;;29.77;16.10;;;-0.10;99.90;;;;;;5113703;28;20249;-70
2021/12/23 08:42:56;;;;;;;25.50;15.47;;;-0.10;99.90;;;;;;5113833;28;20717;-69
2021/12/23 08:45:23;;;;;;;31.87;15.67;;;-0.10;99.90;;;;;;5112600;28;20178;-71
2021/12/23 08:47:50;;;;;;;28.93;16.03;;;-0.10;99.90;;;;;;5095860;28;20177;-70
2021/12/23 08:50:19;;;;;;;29.47;15.73;;;-0.20;99.90;;;;;;5114649;28;20186;-71
2021/12/23 08:52:45;;;;;;;27.43;15.00;;;-0.20;99.90;;;;;;5112847;28;20175;-72
2021/12/23 08:55:12;;;;;;;32.00;15.93;;;-0.10;99.90;;;;;;5112286;28;20216;-69
2021/12/23 08:57:38;;;;;;;28.37;15.83;;;-0.10;99.90;;;;;;5113497;28;20198;-70
2021/12/23 09:00:05;;;;;;;30.53;16.60;;;0.00;99.90;;;;;;5095927;28;20182;-69
2021/12/23 09:02:31;;;;;;;27.40;16.27;;;0.00;99.90;;;;;;5113309;28;20182;-71
2021/12/23 09:04:56;;;;;;;28.53;16.10;;;0.00;99.90;;;;;;5113116;28;20225;-70
2021/12/23 09:07:22;;;;;;;32.50;14.70;;;0.00;99.90;;;;;;5111984;28;20189;-71
2021/12/23 09:09:51;;;;;;;28.17;15.70;;;0.10;99.90;;;;;;5112086;28;20190;-70
2021/12/23 09:12:20;;;;;;;27.10;15.67;;;0.00;99.90;;;;;;5096384;28;20220;-70
2021/12/23 09:14:46;;;;;;;30.03;15.53;;;0.00;99.90;;;;;;5095113;28;20173;-71
2021/12/23 09:17:12;;;;;;;31.07;15.83;;;0.10;99.90;;;;;;5112906;28;20200;-70
2021/12/23 09:19:38;;;;;;;26.93;15.37;;;0.10;99.90;;;;;;5112946;28;20222;-70
2021/12/23 09:22:04;;;;;;;30.70;14.67;;;0.10;99.90;;;;;;5112809;28;20176;-70
2021/12/23 09:24:31;;;;;;;32.40;16.37;;;0.20;99.90;;;;;;5114442;28;20167;-71
2021/12/23 09:27:06;;;;;;;28.03;14.33;;;0.20;99.90;;;;;;5113298;28;20179;-69
2021/12/23 09:34:56;;;;;;;28.10;14.00;;;0.20;99.90;;;;;;5113450;28;20188;-70
2021/12/23 09:37:23;;;;;;;31.17;16.93;;;0.20;99.90;;;;;;5112428;28;20246;-70
2021/12/23 09:39:53;;;;;;;28.07;15.33;;;0.30;99.90;;;;;;5111567;28;20225;-71
2021/12/23 09:42:36;;;;;;;27.50;14.77;;;0.40;99.90;;;;;;5111983;28;20168;-70
2021/12/23 09:45:07;;;;;;;26.07;15.10;;;0.30;99.90;;;;;;5111978;28;20196;-70
2021/12/23 09:47:34;;;;;;;26.33;15.27;;;0.40;99.90;;;;;;5095681;28;20271;-70
2021/12/23 09:50:04;;;;;;;29.13;14.50;;;0.40;99.90;;;;;;5111165;28;20410;-71
2021/12/23 09:52:32;;;;;;;28.13;14.87;;;0.40;99.90;;;;;;5111433;28;20172;-70
2021/12/23 09:55:01;;;;;;;32.97;15.27;;;0.50;99.90;;;;;;5112689;28;20256;-70
2021/12/23 09:57:27;;;;;;;28.17;14.90;;;0.50;99.90;;;;;;5111644;28;20229;-71
2021/12/23 09:59:54;;;;;;;27.73;15.17;;;0.60;99.90;;;;;;5111775;28;20193;-70
2021/12/23 10:02:20;;;;;;;25.63;13.70;;;0.60;99.90;;;;;;5112508;28;20198;-70
2021/12/23 10:04:46;;;;;;;29.53;15.77;;;0.60;99.90;;;;;;5111642;28;20650;-71
2021/12/23 10:07:12;;;;;;;29.40;15.57;;;0.60;99.90;;;;;;5096462;28;20185;-70
2021/12/23 10:31:09;;;;;;;27.97;14.03;;;0.70;99.90;;;;;;5111753;28;20661;-77
2021/12/23 10:37:04;;;;;;;30.37;15.13;;;0.70;99.90;;;;;;5093945;28;20173;-77
2021/12/23 10:39:23;;;;;;;24.27;14.30;;;0.70;99.90;;;;;;5111543;28;20215;-75
2021/12/23 10:41:48;;;;;;;24.60;13.53;;;0.70;99.90;;;;;;5093625;28;20177;-75
2021/12/23 10:44:14;;;;;;;25.37;13.90;;;0.80;99.90;;;;;;5111963;28;20176;-76
2021/12/23 10:46:41;;;;;;;25.07;13.73;;;0.80;99.90;;;;;;5111998;28;20177;-78
2021/12/23 10:52:05;;;;;;;24.43;14.00;;;0.80;99.90;;;;;;5111790;28;20584;-75
2021/12/23 11:00:11;;;;;;;22.27;12.40;;;0.90;99.90;;;;;;5112899;28;20209;-76
2021/12/23 11:02:38;;;;;;;21.33;12.57;;;0.90;99.90;;;;;;5093328;28;20174;-76
2021/12/23 11:05:18;;;;;;;24.13;13.63;;;0.90;99.90;;;;;;5093213;28;20182;-76
2021/12/23 11:08:40;;;;;;;21.73;11.77;;;0.90;99.90;;;;;;5093479;28;20585;-76
2021/12/23 11:38:20;;;;;;;25.70;13.20;;;1.20;99.90;;;;;;5115069;28;20201;-77
2021/12/23 11:45:46;;;;;;;21.00;11.93;;;1.40;99.90;;;;;;5115458;28;20657;-75
2021/12/23 11:48:14;;;;;;;20.93;12.00;;;1.50;99.90;;;;;;5097110;28;20183;-76
2021/12/23 11:50:54;;;;;;;25.03;13.23;;;1.50;99.90;;;;;;5096981;28;20256;-75
2021/12/23 11:53:22;;;;;;;20.17;12.07;;;1.50;99.90;;;;;;5116025;28;20169;-75
2021/12/23 11:55:48;;;;;;;21.53;11.97;;;1.60;99.90;;;;;;5096641;28;20181;-75
2021/12/23 11:58:14;;;;;;;23.50;11.70;;;1.60;99.90;;;;;;5096235;28;20207;-76
2021/12/23 12:00:44;;;;;;;20.97;11.97;;;1.70;99.90;;;;;;5096656;28;20223;-75
2021/12/23 12:03:12;;;;;;;21.60;11.67;;;1.70;99.90;;;;;;5114942;28;20165;-75
2021/12/23 12:05:38;;;;;;;21.87;11.50;;;1.80;99.90;;;;;;5096282;28;20190;-76
2021/12/23 12:08:09;;;;;;;19.63;12.07;;;1.80;99.90;;;;;;5114650;28;20181;-75
2021/12/23 12:10:37;;;;;;;19.27;11.90;;;1.90;99.90;;;;;;5095440;28;20196;-75
2021/12/23 12:13:07;;;;;;;19.87;11.77;;;1.90;99.90;;;;;;5096542;28;20691;-75
2021/12/23 12:15:48;;;;;;;18.57;10.47;;;2.00;99.90;;;;;;5114773;28;20202;-75
2021/12/23 12:18:21;;;;;;;19.07;11.17;;;2.00;99.90;;;;;;5114301;28;20729;-75
2021/12/23 12:20:52;;;;;;;21.23;11.90;;;2.20;99.90;;;;;;5114324;28;20709;-75
2021/12/23 12:23:29;;;;;;;24.07;12.10;;;2.20;99.90;;;;;;5114583;28;20649;-74
2021/12/23 12:25:59;;;;;;;20.73;11.83;;;2.10;99.90;;;;;;5095908;28;20174;-77
2021/12/23 12:28:35;;;;;;;20.00;11.20;;;2.00;99.90;;;;;;5114001;28;20166;-76
2021/12/23 12:31:06;;;;;;;21.03;12.30;;;2.00;99.90;;;;;;5096001;28;20211;-75
2021/12/23 12:33:34;;;;;;;22.50;11.00;;;2.00;99.90;;;;;;5096281;28;20173;-76
2021/12/23 12:36:03;;;;;;;23.43;12.17;;;2.00;99.90;;;;;;5095157;28;20174;-75
2021/12/23 12:38:46;;;;;;;17.53;10.67;;;1.90;99.90;;;;;;5113614;28;20197;-75
2021/12/23 12:41:23;;;;;;;20.53;11.30;;;1.90;99.90;;;;;;5095637;28;20189;-78
2021/12/23 12:44:00;;;;;;;16.30;10.70;;;1.90;99.90;;;;;;5096034;28;20157;-75
2021/12/23 12:46:35;;;;;;;18.33;11.30;;;1.90;99.90;;;;;;5095743;28;20267;-75
2021/12/23 12:49:16;;;;;;;21.37;11.87;;;1.70;99.90;;;;;;5095645;28;20208;-75
2021/12/23 12:51:45;;;;;;;18.23;11.50;;;1.80;99.90;;;;;;5095526;28;20199;-75
2021/12/23 12:54:16;;;;;;;16.70;10.67;;;1.70;99.90;;;;;;5095874;28;20179;-75
2021/12/23 12:56:47;;;;;;;18.50;11.17;;;1.70;99.90;;;;;;5113756;28;20210;-76
2021/12/23 12:59:13;;;;;;;21.03;12.77;;;1.80;99.90;;;;;;5095111;28;20194;-78
2021/12/23 13:01:45;;;;;;;17.40;10.93;;;1.70;99.90;;;;;;5113468;28;20682;-75
2021/12/23 13:04:41;;;;;;;18.77;11.63;;;1.80;99.90;;;;;;5095348;28;20176;-78
2021/12/23 13:07:25;;;;;;;20.10;11.40;;;1.80;99.90;;;;;;5095392;28;20180;-75
2021/12/23 13:10:06;;;;;;;18.03;11.80;;;1.80;99.90;;;;;;5094792;28;20200;-75
2021/12/23 13:13:00;;;;;;;20.13;11.30;;;1.70;99.90;;;;;;5095240;28;20184;-75
2021/12/23 13:15:29;;;;;;;24.73;13.30;;;1.80;99.90;;;;;;5094849;28;20204;-77
2021/12/23 13:18:00;;;;;;;18.80;11.67;;;1.80;99.90;;;;;;5094560;28;20288;-75
2021/12/23 13:20:43;;;;;;;25.00;12.30;;;1.80;99.90;;;;;;5094758;28;20255;-74
2021/12/23 13:23:22;;;;;;;24.07;12.30;;;1.70;99.90;;;;;;5094905;28;20175;-77
2021/12/23 13:25:49;;;;;;;20.93;11.43;;;1.80;99.90;;;;;;5094646;28;20583;-75
2021/12/23 13:28:24;;;;;;;19.70;12.17;;;1.80;99.90;;;;;;5094734;28;20603;-75
2021/12/23 13:30:50;;;;;;;20.43;11.27;;;1.80;99.90;;;;;;5094620;28;20641;-75
2021/12/23 13:33:15;;;;;;;19.43;11.50;;;1.80;99.90;;;;;;5113106;28;20236;-75
2021/12/23 13:35:41;;;;;;;19.10;11.03;;;1.80;99.90;;;;;;5094703;28;20177;-75
2021/12/23 13:38:06;;;;;;;20.20;11.97;;;1.80;99.90;;;;;;5094362;28;20259;-75
2021/12/23 13:40:38;;;;;;;21.60;13.10;;;1.80;99.90;;;;;;5094403;28;20258;-75
2021/12/23 13:43:04;;;;;;;20.33;11.87;;;1.90;99.90;;;;;;5094956;28;20252;-76
2021/12/23 13:45:30;;;;;;;22.63;12.27;;;1.90;99.90;;;;;;5094282;28;20330;-78
2021/12/23 13:47:58;;;;;;;20.77;11.90;;;1.90;99.90;;;;;;5112018;28;20248;-78
2021/12/23 13:50:27;;;;;;;24.67;12.60;;;1.90;99.90;;;;;;5094124;28;20196;-75